Time;durP1;ratioP1;P1;durP2;ratioP2;P2;SDS_P1;SDS_P2;PMS_P1;PMS_P2;Temp;Humidity;BMP_temperature;BMP_pressure;BME280_temperature;BME280_humidity;BME280_pressure;Samples;Min_cycle;Max_cycle;Signal;HPM_P1;HPM_P2
2022/07/31 00:01:34;;;;;;;7.05;2.15;;;20.20;65.10;;;19.47;50.39;97567.19;5032203;28;20900;-72
2022/07/31 00:04:00;;;;;;;3.35;2.20;;;20.10;65.10;;;19.48;50.32;97573.34;5031749;28;20760;-72
2022/07/31 00:06:28;;;;;;;4.30;2.00;;;20.10;65.20;;;19.36;50.72;97576.56;5032303;28;20399;-72
2022/07/31 00:08:54;;;;;;;2.83;2.00;;;20.00;65.50;;;19.31;50.56;97576.69;5032183;28;20410;-72
2022/07/31 00:11:19;;;;;;;3.10;1.90;;;20.00;65.70;;;19.34;50.60;97570.69;5032068;28;20403;-72
2022/07/31 00:13:45;;;;;;;5.20;2.17;;;20.00;65.30;;;19.34;49.89;97570.69;5031414;28;20405;-72
2022/07/31 00:16:11;;;;;;;11.48;2.55;;;20.00;64.80;;;19.31;49.93;97560.56;5030733;28;20485;-72
2022/07/31 00:18:37;;;;;;;4.63;2.03;;;19.90;65.00;;;19.24;50.05;97561.00;5031861;28;20887;-71
2022/07/31 00:21:03;;;;;;;6.43;2.30;;;19.80;65.10;;;19.21;50.17;97564.25;5032075;28;20410;-74
2022/07/31 00:23:31;;;;;;;3.65;1.73;;;19.80;65.30;;;19.16;50.35;97563.59;5031272;28;20510;-71
2022/07/31 00:25:57;;;;;;;3.15;1.88;;;19.80;65.50;;;19.15;50.86;97562.00;5031796;28;20407;-72
2022/07/31 00:28:23;;;;;;;4.40;2.13;;;19.80;65.90;;;19.20;50.32;97559.19;5031679;28;20421;-74
2022/07/31 00:30:49;;;;;;;4.13;2.20;;;19.80;65.60;;;19.14;50.57;97561.19;5031706;28;20888;-74
2022/07/31 00:33:15;;;;;;;2.53;1.77;;;19.70;65.70;;;19.09;50.86;97557.84;5031301;28;20410;-71
2022/07/31 00:35:41;;;;;;;5.32;2.15;;;19.70;66.10;;;19.10;50.96;97564.78;5031484;28;20403;-73
2022/07/31 00:38:09;;;;;;;3.47;2.13;;;19.70;66.10;;;19.12;51.24;97562.59;5031685;28;20896;-72
2022/07/31 00:40:46;;;;;;;5.07;1.98;;;19.80;66.50;;;19.11;51.90;97553.75;5030612;28;20411;-73
2022/07/31 00:43:13;;;;;;;3.67;2.22;;;19.80;67.20;;;19.13;52.17;97558.81;5031068;28;20415;-73
2022/07/31 00:45:39;;;;;;;3.00;2.00;;;19.80;67.60;;;19.11;51.95;97564.47;5031351;28;20418;-72
2022/07/31 00:48:05;;;;;;;4.00;1.95;;;19.80;67.50;;;19.11;51.84;97564.47;5031532;28;20442;-73
2022/07/31 00:50:31;;;;;;;3.35;1.95;;;19.80;67.20;;;19.12;51.65;97566.06;5031338;28;20763;-72
2022/07/31 00:52:57;;;;;;;3.92;2.00;;;19.80;67.20;;;19.11;51.63;97561.00;5048382;22;20407;-72
2022/07/31 00:55:24;;;;;;;3.67;2.40;;;19.70;67.20;;;19.07;52.00;97562.72;5050270;28;20525;-72
2022/07/31 00:57:51;;;;;;;3.03;2.30;;;19.70;67.30;;;19.02;52.31;97560.91;5051108;28;20421;-72
2022/07/31 01:00:17;;;;;;;2.45;2.00;;;19.60;67.80;;;18.91;52.69;97563.03;5048334;28;20416;-72
2022/07/31 01:02:43;;;;;;;3.28;2.20;;;19.50;68.20;;;18.87;52.82;97567.38;5034560;28;20414;-72
2022/07/31 01:05:09;;;;;;;3.65;2.20;;;19.50;68.50;;;18.88;52.61;97566.28;5030765;28;20919;-72
2022/07/31 01:07:35;;;;;;;3.75;2.40;;;19.50;68.40;;;18.83;52.67;97565.63;5031975;28;20477;-72
2022/07/31 01:10:07;;;;;;;2.08;1.80;;;19.40;68.40;;;18.77;53.13;97562.25;5050818;28;20437;-74
2022/07/31 01:12:44;;;;;;;2.87;2.13;;;19.40;68.70;;;18.79;53.15;97568.13;5050885;28;20771;-72
2022/07/31 01:15:12;;;;;;;3.78;2.60;;;19.50;68.90;;;18.83;52.93;97563.72;5050467;28;20404;-73
2022/07/31 01:17:44;;;;;;;4.95;2.50;;;19.50;68.70;;;18.85;52.48;97560.75;5050684;28;20926;-74
2022/07/31 01:20:12;;;;;;;4.20;2.20;;;19.50;68.20;;;18.80;52.67;97566.19;5050600;28;20394;-73
2022/07/31 01:23:06;;;;;;;4.90;2.63;;;19.50;68.50;;;18.76;53.06;97565.22;5050420;28;20460;-71
2022/07/31 01:25:44;;;;;;;4.65;2.75;;;19.40;68.90;;;18.75;53.25;97569.00;5047606;28;20394;-71
2022/07/31 01:28:23;;;;;;;3.85;2.33;;;19.40;69.10;;;18.75;53.37;97564.44;5044201;28;20848;-71
2022/07/31 01:30:59;;;;;;;5.40;2.67;;;19.40;68.80;;;18.73;53.29;97568.50;5029827;28;20402;-71
2022/07/31 01:33:32;;;;;;;3.08;2.42;;;19.40;69.00;;;18.66;53.36;97568.91;5030127;28;20402;-71
2022/07/31 01:36:12;;;;;;;3.35;2.50;;;19.40;70.20;;;18.63;53.64;97560.66;5030801;28;20391;-71
2022/07/31 01:38:44;;;;;;;3.28;2.55;;;19.40;69.60;;;18.60;53.89;97563.94;5030577;28;20489;-71
2022/07/31 01:41:13;;;;;;;5.25;3.10;;;19.30;69.70;;;18.58;54.49;97566.91;5030522;28;20396;-71
2022/07/31 01:43:43;;;;;;;5.45;3.30;;;19.30;70.30;;;18.50;54.58;97562.19;5029935;28;20415;-71
2022/07/31 01:46:14;;;;;;;5.80;3.55;;;19.20;70.60;;;18.48;55.08;97567.09;5030468;28;20399;-71
2022/07/31 01:48:41;;;;;;;8.45;4.15;;;19.20;71.10;;;18.44;55.08;97568.75;5030581;28;20767;-71
2022/07/31 01:51:09;;;;;;;6.00;3.95;;;19.10;71.20;;;18.39;55.51;97569.66;5030410;28;20406;-71
2022/07/31 01:53:37;;;;;;;6.13;4.00;;;19.10;71.70;;;18.34;55.67;97569.78;5029550;28;20411;-71
2022/07/31 01:56:05;;;;;;;4.75;3.22;;;19.00;71.90;;;18.29;55.77;97569.03;5030561;28;20395;-71
2022/07/31 01:58:35;;;;;;;4.60;3.58;;;19.00;72.00;;;18.24;56.07;97564.59;5030382;28;20402;-71
2022/07/31 02:01:04;;;;;;;7.78;3.80;;;19.00;72.20;;;18.26;56.18;97569.66;5030392;28;20865;-71
2022/07/31 02:03:33;;;;;;;7.45;4.20;;;18.90;72.50;;;18.21;56.24;97567.03;5029600;28;20498;-71
2022/07/31 02:06:00;;;;;;;4.63;3.47;;;18.80;72.80;;;18.06;56.57;97565.44;5030267;28;20407;-71
2022/07/31 02:08:28;;;;;;;8.05;4.07;;;18.70;73.40;;;17.99;56.86;97563.13;5030253;28;20989;-71
2022/07/31 02:10:55;;;;;;;6.05;3.67;;;18.60;73.90;;;17.88;57.10;97567.09;5030304;28;20399;-71
2022/07/31 02:13:22;;;;;;;9.52;4.05;;;18.50;74.20;;;17.79;57.68;97566.16;5029834;28;20476;-71
2022/07/31 02:15:51;;;;;;;6.55;3.40;;;18.40;74.80;;;17.70;57.81;97566.03;5030167;28;20482;-71
2022/07/31 02:18:18;;;;;;;6.18;3.42;;;18.40;75.10;;;17.69;58.05;97566.31;5030248;28;20453;-71
2022/07/31 02:20:49;;;;;;;3.87;3.33;;;18.30;75.30;;;17.71;58.29;97567.63;5030235;28;20399;-71
2022/07/31 02:23:15;;;;;;;3.80;3.08;;;18.40;75.60;;;17.75;57.80;97563.25;5029728;28;20538;-71
2022/07/31 02:25:44;;;;;;;4.78;3.25;;;18.40;75.30;;;17.78;57.64;97565.38;5030225;28;20442;-71
2022/07/31 02:28:14;;;;;;;4.50;3.33;;;18.50;75.00;;;17.81;57.10;97561.31;5030049;28;20406;-71
2022/07/31 02:30:43;;;;;;;6.05;3.22;;;18.50;74.60;;;17.76;57.20;97559.50;5030329;28;20493;-71
2022/07/31 02:33:12;;;;;;;5.80;3.50;;;18.50;74.60;;;17.74;57.12;97561.66;5029665;28;20445;-71
2022/07/31 02:35:41;;;;;;;8.13;3.33;;;18.40;74.50;;;17.70;57.08;97558.00;5029934;28;20407;-71
2022/07/31 02:38:10;;;;;;;4.03;3.00;;;18.30;75.30;;;17.58;57.01;97551.47;5030029;28;20461;-71
2022/07/31 02:40:38;;;;;;;5.82;3.30;;;18.20;74.60;;;17.56;57.30;97550.97;5030007;28;20456;-71
2022/07/31 02:43:04;;;;;;;5.30;2.90;;;18.20;74.90;;;17.54;57.28;97553.94;5029501;28;20418;-71
2022/07/31 02:45:31;;;;;;;5.63;3.70;;;18.20;74.90;;;17.53;57.45;97555.00;5029858;28;20453;-71
2022/07/31 02:47:57;;;;;;;5.82;3.28;;;18.20;75.20;;;17.53;57.26;97546.19;5028706;28;20411;-71
2022/07/31 02:50:24;;;;;;;4.65;3.10;;;18.20;75.10;;;17.51;57.65;97551.84;5029962;28;20493;-71
2022/07/31 02:52:50;;;;;;;5.70;3.13;;;18.20;75.20;;;17.51;57.48;97549.19;5029321;28;20410;-72
2022/07/31 02:55:18;;;;;;;5.68;3.25;;;18.20;75.20;;;17.47;57.48;97547.34;5029836;28;20906;-71
2022/07/31 02:57:46;;;;;;;6.00;3.03;;;18.20;75.30;;;17.47;57.76;97552.72;5029895;28;20490;-71
2022/07/31 03:00:21;;;;;;;3.92;2.90;;;18.10;75.20;;;17.38;57.71;97547.22;5030004;28;20421;-71
2022/07/31 03:02:47;;;;;;;3.35;2.40;;;18.10;75.50;;;17.36;57.68;97554.75;5029299;28;20997;-71
2022/07/31 03:05:14;;;;;;;3.42;2.55;;;18.10;75.50;;;17.35;58.13;97547.81;5032559;28;20411;-71
2022/07/31 03:07:40;;;;;;;4.20;2.70;;;18.10;75.80;;;17.37;57.89;97546.41;5033380;28;20407;-71
2022/07/31 03:10:09;;;;;;;6.78;3.00;;;18.10;75.60;;;17.38;57.89;97548.00;5033418;28;20413;-71
2022/07/31 03:12:38;;;;;;;4.68;2.97;;;18.10;75.60;;;17.38;57.84;97555.25;5033244;28;20403;-71
2022/07/31 03:15:08;;;;;;;9.05;3.08;;;18.10;76.00;;;17.34;58.42;97549.69;5033092;28;20500;-71
2022/07/31 03:17:36;;;;;;;4.10;3.10;;;18.00;76.40;;;17.31;58.76;97547.59;5033168;28;20462;-71
2022/07/31 03:20:02;;;;;;;7.00;3.30;;;18.00;76.80;;;17.23;59.05;97545.56;5033124;28;20407;-71
2022/07/31 03:22:28;;;;;;;3.92;2.53;;;17.90;77.20;;;17.20;59.16;97558.75;5032870;28;20451;-71
2022/07/31 03:24:54;;;;;;;4.57;2.63;;;17.90;77.60;;;17.18;59.22;97556.34;5032539;28;20406;-71
2022/07/31 03:27:20;;;;;;;5.27;3.10;;;17.90;77.70;;;17.20;59.21;97548.84;5032871;28;20409;-71
2022/07/31 03:29:48;;;;;;;3.00;2.58;;;17.90;77.80;;;17.18;59.50;97552.88;5033003;28;20410;-71
2022/07/31 03:32:14;;;;;;;3.88;2.72;;;17.90;78.00;;;17.15;59.52;97546.22;5032924;28;20414;-71
2022/07/31 03:34:40;;;;;;;3.63;2.92;;;17.90;78.10;;;17.14;59.84;97541.19;5032264;28;20407;-71
2022/07/31 03:37:06;;;;;;;3.40;2.70;;;17.90;78.20;;;17.16;59.73;97547.00;5032982;28;20915;-71
2022/07/31 03:39:32;;;;;;;5.10;3.35;;;17.90;78.30;;;17.15;59.88;97540.06;5032696;28;20443;-71
2022/07/31 03:41:58;;;;;;;4.68;2.90;;;17.90;78.60;;;17.11;59.94;97542.53;5032572;28;20494;-71
2022/07/31 03:44:25;;;;;;;4.55;2.70;;;17.80;78.90;;;17.07;60.04;97538.84;5032172;28;20405;-71
2022/07/31 03:46:53;;;;;;;6.10;3.13;;;17.80;79.00;;;17.08;60.23;97553.00;5032489;28;20403;-71
2022/07/31 03:49:20;;;;;;;8.65;3.08;;;17.80;79.00;;;17.02;60.10;97549.59;5032570;28;20406;-71
2022/07/31 03:51:46;;;;;;;5.43;3.20;;;17.70;79.10;;;16.95;60.70;97539.28;5032559;28;20403;-71
2022/07/31 03:54:12;;;;;;;3.92;2.95;;;17.70;79.50;;;16.95;60.68;97549.16;5031769;28;20410;-71
2022/07/31 03:56:42;;;;;;;6.18;3.10;;;17.70;80.00;;;16.95;60.98;97552.66;5032388;28;20407;-71
2022/07/31 03:59:08;;;;;;;5.23;3.20;;;17.70;80.20;;;16.96;60.95;97553.44;5032428;28;20499;-71
2022/07/31 04:01:35;;;;;;;3.22;2.63;;;17.70;80.30;;;16.97;61.05;97552.38;5032270;28;20399;-71
2022/07/31 04:04:02;;;;;;;3.30;2.50;;;17.70;81.10;;;16.98;60.86;97556.63;5031769;28;20900;-71
2022/07/31 04:06:28;;;;;;;4.70;2.75;;;17.70;80.40;;;16.98;60.95;97561.97;5032266;28;20415;-71
2022/07/31 04:08:54;;;;;;;3.60;2.28;;;17.80;80.40;;;16.98;60.91;97556.63;5032238;28;20407;-70
2022/07/31 04:11:20;;;;;;;6.15;2.90;;;17.80;80.50;;;17.01;60.61;97556.03;5032247;28;20951;-71
2022/07/31 04:13:46;;;;;;;3.80;2.75;;;17.70;80.20;;;17.00;60.48;97557.13;5031587;28;20399;-71
2022/07/31 04:16:12;;;;;;;4.07;2.60;;;17.80;80.30;;;16.98;60.45;97552.09;5032096;28;20446;-71
2022/07/31 04:18:38;;;;;;;3.35;2.30;;;17.70;80.00;;;16.92;60.52;97555.88;5032001;28;21010;-71
2022/07/31 04:21:06;;;;;;;4.47;2.50;;;17.60;80.30;;;16.91;60.64;97551.63;5031910;28;20406;-71
2022/07/31 04:23:31;;;;;;;3.00;2.53;;;17.60;80.40;;;16.93;60.03;97554.81;5031115;28;20490;-71
2022/07/31 04:25:57;;;;;;;4.95;2.70;;;17.60;79.80;;;16.85;59.91;97555.44;5031809;28;20564;-71
2022/07/31 04:28:24;;;;;;;4.20;2.57;;;17.50;79.70;;;16.83;60.07;97546.13;5031844;28;20443;-71
2022/07/31 04:30:49;;;;;;;3.20;2.40;;;17.50;80.00;;;16.85;60.76;97547.41;5031818;28;20407;-71
2022/07/31 04:33:16;;;;;;;2.90;2.35;;;17.50;80.80;;;16.81;61.19;97548.28;5031118;28;20402;-71
2022/07/31 04:35:42;;;;;;;2.90;2.60;;;17.50;81.40;;;16.81;61.30;97554.44;5031558;28;20904;-71
2022/07/31 04:38:10;;;;;;;4.97;2.57;;;17.50;81.70;;;16.84;61.35;97553.06;5031653;28;20460;-71
2022/07/31 04:40:36;;;;;;;5.50;2.47;;;17.50;81.70;;;16.83;61.30;97559.50;5031645;28;20468;-70
2022/07/31 04:43:02;;;;;;;3.80;2.35;;;17.50;81.90;;;16.84;61.45;97561.88;5030983;28;20507;-71
2022/07/31 04:45:29;;;;;;;2.78;2.38;;;17.50;82.10;;;16.90;61.93;97563.41;5031524;28;20807;-71
2022/07/31 04:47:55;;;;;;;3.67;2.50;;;17.60;82.70;;;16.98;61.93;97568.13;5031515;28;20407;-71
2022/07/31 04:50:21;;;;;;;3.95;2.80;;;17.70;82.80;;;17.06;61.84;97566.69;5031385;28;20954;-71
2022/07/31 04:52:47;;;;;;;3.25;2.53;;;17.70;82.80;;;17.20;61.70;97572.13;5030911;28;20453;-71
2022/07/31 04:55:14;;;;;;;3.92;2.55;;;17.90;82.90;;;17.35;61.60;97570.03;5031082;28;20411;-71
2022/07/31 04:57:40;;;;;;;3.63;2.80;;;18.10;82.70;;;17.48;61.74;97573.84;5031272;28;20403;-71
2022/07/31 05:00:09;;;;;;;5.60;2.70;;;18.20;82.70;;;17.58;61.71;97563.00;5031223;28;20514;-71
2022/07/31 05:02:35;;;;;;;3.47;2.42;;;18.30;82.80;;;17.68;61.78;97572.75;5031039;28;20497;-71
2022/07/31 05:05:01;;;;;;;4.72;2.72;;;18.30;83.00;;;17.75;61.93;97573.19;5030572;28;20426;-71
2022/07/31 05:07:27;;;;;;;3.30;2.60;;;18.40;83.20;;;17.85;62.10;97575.69;5031131;28;20892;-71
2022/07/31 05:09:53;;;;;;;3.22;2.28;;;18.50;83.60;;;17.96;62.00;97571.78;5031144;28;20492;-70
2022/07/31 05:12:20;;;;;;;2.67;2.30;;;18.60;83.70;;;18.12;61.65;97573.06;5030966;28;20466;-71
2022/07/31 05:14:46;;;;;;;2.70;2.13;;;18.80;83.10;;;18.27;61.13;97574.69;5045763;28;20407;-71
2022/07/31 05:17:12;;;;;;;3.63;2.37;;;18.90;82.50;;;18.42;60.44;97574.41;5030957;28;20440;-70
2022/07/31 05:19:38;;;;;;;4.97;2.40;;;19.10;81.80;;;18.56;60.25;97574.47;5030838;28;20847;-71
2022/07/31 05:22:04;;;;;;;3.00;1.90;;;19.20;81.40;;;18.68;59.90;97569.41;5030871;28;20399;-71
2022/07/31 05:24:30;;;;;;;2.85;2.03;;;19.40;81.00;;;18.78;59.61;97558.47;5030338;28;20950;-71
2022/07/31 05:26:56;;;;;;;3.83;2.60;;;19.40;80.50;;;18.84;59.39;97556.47;5030232;28;20399;-71
2022/07/31 05:29:24;;;;;;;5.20;2.40;;;19.50;80.30;;;18.89;59.57;97556.38;5030857;28;20399;-71
2022/07/31 05:31:50;;;;;;;3.33;2.60;;;19.60;80.70;;;18.92;60.18;97563.81;5030642;28;20406;-71
2022/07/31 05:34:16;;;;;;;5.47;2.70;;;19.60;81.20;;;18.94;59.82;97567.00;5030022;28;20399;-71
2022/07/31 05:36:42;;;;;;;5.18;2.47;;;19.50;80.90;;;18.91;59.65;97560.34;5030712;28;20849;-71
2022/07/31 05:39:08;;;;;;;4.55;2.83;;;19.50;80.60;;;18.90;59.48;97563.31;5030678;28;20402;-71
2022/07/31 05:41:34;;;;;;;3.53;2.38;;;19.50;80.50;;;18.87;59.39;97570.06;5030509;28;20812;-71
2022/07/31 05:44:01;;;;;;;4.60;2.60;;;19.50;80.40;;;18.86;59.40;97568.50;5029883;28;20453;-71
2022/07/31 05:46:28;;;;;;;3.70;2.47;;;19.50;80.30;;;18.88;59.67;97563.63;5030539;28;20410;-70
2022/07/31 05:48:54;;;;;;;3.75;2.10;;;19.50;80.80;;;18.92;59.51;97567.31;5030467;28;20407;-71
2022/07/31 05:51:20;;;;;;;5.10;2.38;;;19.50;80.80;;;18.99;59.46;97563.41;5030448;28;20414;-70
2022/07/31 05:53:46;;;;;;;4.00;2.40;;;19.60;80.80;;;19.05;59.51;97573.72;5029772;28;20780;-71
2022/07/31 05:56:12;;;;;;;5.90;2.10;;;19.70;80.60;;;19.10;59.45;97562.88;5030431;28;20505;-71
2022/07/31 05:58:38;;;;;;;3.03;2.20;;;19.70;80.60;;;19.17;59.32;97565.19;5030286;28;20472;-69
2022/07/31 06:01:04;;;;;;;4.13;2.13;;;19.70;80.50;;;19.20;58.90;97556.50;5045759;28;20411;-71
2022/07/31 06:03:34;;;;;;;4.72;2.22;;;19.80;80.50;;;19.24;59.14;97557.50;5029627;28;20915;-69
2022/07/31 06:06:02;;;;;;;4.05;2.40;;;19.80;80.10;;;19.31;59.20;97568.63;5030393;28;20768;-70
2022/07/31 06:08:29;;;;;;;4.65;2.33;;;19.90;80.40;;;19.36;58.85;97571.19;5030295;28;20410;-70
2022/07/31 06:10:55;;;;;;;2.90;2.20;;;19.90;79.80;;;19.42;59.09;97571.84;5030365;28;20907;-70
2022/07/31 06:13:24;;;;;;;3.25;1.95;;;20.00;80.00;;;19.48;59.30;97576.84;5029845;28;20465;-70
2022/07/31 06:15:50;;;;;;;3.42;2.10;;;20.10;80.60;;;19.51;58.72;97576.22;5030223;28;20435;-70
2022/07/31 06:18:16;;;;;;;2.78;2.10;;;20.10;80.00;;;19.57;58.72;97583.06;5030051;28;20402;-70
2022/07/31 06:20:44;;;;;;;6.18;2.40;;;20.10;79.50;;;19.61;58.18;97584.06;5030225;28;20399;-69
2022/07/31 06:23:10;;;;;;;5.10;2.20;;;20.20;79.10;;;19.67;58.57;97582.03;5029607;28;20423;-70
2022/07/31 06:25:36;;;;;;;4.78;2.30;;;20.20;79.40;;;19.72;58.75;97587.28;5030006;28;20399;-72
2022/07/31 06:28:02;;;;;;;3.88;2.42;;;20.30;79.70;;;19.77;58.61;97586.41;5030065;28;20914;-72
2022/07/31 06:30:28;;;;;;;4.30;2.13;;;20.30;79.50;;;19.85;58.11;97588.31;5030121;28;21152;-69
2022/07/31 06:32:54;;;;;;;4.75;2.28;;;20.40;78.90;;;19.89;56.86;97592.78;5029636;28;20635;-71
2022/07/31 06:35:20;;;;;;;5.20;2.40;;;20.50;77.40;;;19.96;56.26;97593.16;5030008;28;20406;-70
2022/07/31 06:37:47;;;;;;;3.35;2.20;;;20.60;76.50;;;20.03;55.00;97590.81;5030020;28;20902;-71
2022/07/31 06:40:13;;;;;;;4.72;2.13;;;20.60;75.00;;;20.08;55.41;97596.06;5032992;28;20406;-71
2022/07/31 06:42:40;;;;;;;3.90;2.20;;;20.60;75.30;;;20.16;55.97;97593.72;5033383;28;20410;-71
2022/07/31 06:45:08;;;;;;;4.10;2.08;;;20.70;75.90;;;20.22;55.31;97593.31;5033543;28;20403;-71
2022/07/31 06:47:34;;;;;;;8.00;2.45;;;20.80;75.30;;;20.29;55.10;97591.00;5033691;28;20403;-71
2022/07/31 06:50:00;;;;;;;3.85;2.20;;;20.80;74.80;;;20.36;54.80;97594.06;5033697;28;20403;-71
2022/07/31 06:52:26;;;;;;;3.03;1.85;;;20.90;74.40;;;20.43;53.78;97588.25;5033765;28;20860;-71
2022/07/31 06:54:53;;;;;;;3.43;2.10;;;21.00;73.10;;;20.53;53.29;97592.53;5057528;22;20455;-72
2022/07/31 06:57:19;;;;;;;4.35;1.90;;;21.10;72.60;;;20.61;52.37;97591.78;5052088;28;20770;-72
2022/07/31 06:59:45;;;;;;;4.10;1.77;;;21.10;71.10;;;20.68;51.08;97589.44;5053480;28;20403;-72
2022/07/31 07:02:11;;;;;;;5.28;1.98;;;21.20;69.60;;;20.73;50.44;97590.09;5053175;28;20409;-72
2022/07/31 07:04:37;;;;;;;4.15;2.08;;;21.30;68.80;;;20.80;51.10;97595.03;5040400;28;20473;-72
2022/07/31 07:07:03;;;;;;;4.47;1.80;;;21.30;69.40;;;20.87;51.54;97595.34;5033318;28;20399;-72
2022/07/31 07:09:29;;;;;;;3.13;1.92;;;21.40;69.80;;;20.93;50.59;97587.94;5033335;28;20410;-72
2022/07/31 07:11:56;;;;;;;4.00;1.92;;;21.40;68.70;;;21.00;50.86;97585.56;5032058;28;20795;-72
2022/07/31 07:14:22;;;;;;;4.33;2.10;;;21.50;68.90;;;21.08;50.73;97580.22;5032681;28;20437;-73
2022/07/31 07:16:48;;;;;;;3.10;2.07;;;21.60;69.30;;;21.16;51.14;97584.03;5033171;28;20403;-72
2022/07/31 07:19:14;;;;;;;6.33;2.20;;;21.70;69.20;;;21.25;51.43;97582.16;5033162;28;20468;-72
2022/07/31 07:21:40;;;;;;;3.17;1.90;;;21.80;69.50;;;21.35;50.94;97578.38;5033096;28;20876;-72
2022/07/31 07:24:07;;;;;;;4.28;2.15;;;21.90;69.10;;;21.45;51.10;97578.06;5032490;28;20422;-72
2022/07/31 07:26:33;;;;;;;7.43;2.63;;;22.00;69.30;;;21.54;51.20;97586.94;5032979;28;20407;-72
2022/07/31 07:29:01;;;;;;;4.00;2.25;;;22.10;69.20;;;21.64;51.05;97586.63;5032938;28;20461;-72
2022/07/31 07:31:27;;;;;;;4.00;2.20;;;22.20;69.10;;;21.72;50.77;97583.16;5031697;28;20839;-72
2022/07/31 07:33:54;;;;;;;6.85;2.35;;;22.20;68.50;;;21.79;50.60;97582.66;5032423;28;20483;-72
2022/07/31 07:36:21;;;;;;;3.17;2.42;;;22.30;68.20;;;21.87;50.41;97579.16;5032898;28;20411;-72
2022/07/31 07:38:47;;;;;;;5.25;2.40;;;22.40;68.00;;;21.95;50.39;97584.53;5032746;28;20534;-72
2022/07/31 07:41:13;;;;;;;5.10;2.25;;;22.40;68.00;;;22.04;50.20;97589.13;5032661;28;20806;-72
2022/07/31 07:43:39;;;;;;;6.63;2.50;;;22.50;67.90;;;22.10;49.67;97587.88;5032066;28;20791;-72
2022/07/31 07:46:06;;;;;;;9.13;2.37;;;22.60;67.30;;;22.16;49.39;97581.22;5031446;28;20426;-72
2022/07/31 07:48:32;;;;;;;4.95;2.42;;;22.60;66.80;;;22.24;49.19;97585.78;5032679;28;20407;-72
2022/07/31 07:50:58;;;;;;;3.03;2.22;;;22.70;66.50;;;22.29;48.98;97586.41;5030875;28;20413;-72
2022/07/31 07:53:24;;;;;;;3.20;2.00;;;22.80;66.40;;;22.35;48.69;97587.00;5032021;28;20407;-72
2022/07/31 07:55:50;;;;;;;3.70;2.42;;;22.80;65.90;;;22.41;48.70;97583.00;5032473;28;20411;-72
2022/07/31 07:58:16;;;;;;;3.53;2.30;;;22.90;65.70;;;22.49;48.28;97589.50;5032463;28;20414;-72
2022/07/31 08:00:42;;;;;;;3.27;2.20;;;23.00;65.40;;;22.57;48.04;97583.28;5032331;28;20414;-72
2022/07/31 08:03:09;;;;;;;4.97;2.40;;;23.00;64.90;;;22.63;48.02;97590.88;5031902;28;20851;-72
2022/07/31 08:05:35;;;;;;;5.72;2.42;;;23.10;64.80;;;22.68;47.97;97582.59;5032091;28;20404;-72
2022/07/31 08:08:01;;;;;;;5.72;2.70;;;23.20;64.90;;;22.74;47.49;97577.84;5032239;28;20437;-72
2022/07/31 08:10:27;;;;;;;6.50;2.40;;;23.20;64.40;;;22.75;47.45;97582.91;5032259;28;20407;-72
2022/07/31 08:12:53;;;;;;;3.95;2.22;;;23.20;64.00;;;22.78;47.25;97581.47;5031804;28;20407;-71
2022/07/31 08:15:20;;;;;;;3.60;2.45;;;23.30;63.60;;;22.82;47.24;97587.00;5031907;28;20486;-72
2022/07/31 08:17:46;;;;;;;4.80;2.60;;;23.30;63.60;;;22.79;46.38;97583.03;5032062;28;20884;-72
2022/07/31 08:20:13;;;;;;;5.40;2.10;;;23.30;62.40;;;22.77;46.63;97580.69;5032096;28;20402;-72
2022/07/31 08:22:39;;;;;;;4.30;2.20;;;23.20;63.60;;;22.76;46.84;97587.22;5031804;28;20415;-72
2022/07/31 08:25:06;;;;;;;3.20;2.00;;;23.30;63.00;;;22.78;47.49;97582.25;5031634;28;20411;-72
2022/07/31 08:27:32;;;;;;;4.93;2.30;;;23.30;63.80;;;22.82;48.26;97587.00;5031955;28;20406;-71
2022/07/31 08:30:00;;;;;;;2.87;2.17;;;23.30;64.60;;;22.85;48.60;97581.78;5031794;28;20407;-72
2022/07/31 08:32:27;;;;;;;2.45;2.10;;;23.30;65.00;;;22.89;48.23;97588.09;5031839;28;20423;-72
2022/07/31 08:34:54;;;;;;;3.58;2.10;;;23.40;64.50;;;22.93;47.90;97588.25;5031182;28;20406;-72
2022/07/31 08:37:21;;;;;;;4.05;2.53;;;23.40;64.90;;;22.97;47.44;97586.47;5031549;28;20492;-72
2022/07/31 08:39:49;;;;;;;4.45;2.33;;;23.50;64.30;;;23.02;47.55;97578.16;5031652;28;20490;-73
2022/07/31 08:42:16;;;;;;;4.28;2.78;;;23.50;63.90;;;23.13;47.94;97571.28;5031778;28;20399;-72
2022/07/31 08:44:44;;;;;;;4.38;2.47;;;23.60;64.20;;;23.23;47.47;97576.28;5030896;28;20553;-72
2022/07/31 08:47:13;;;;;;;3.35;2.10;;;23.70;63.70;;;23.33;47.08;97575.91;5031439;28;20461;-71
2022/07/31 08:49:42;;;;;;;3.13;2.00;;;23.80;63.10;;;23.40;46.57;97572.66;5031354;28;20497;-72
2022/07/31 08:52:10;;;;;;;5.00;2.00;;;23.80;62.70;;;23.40;44.99;97575.38;5031382;28;20440;-72
2022/07/31 08:54:45;;;;;;;3.67;1.80;;;23.90;60.70;;;23.46;43.60;97572.13;5030582;28;20431;-73
2022/07/31 08:57:11;;;;;;;3.75;1.95;;;24.00;59.20;;;23.57;42.72;97564.47;5031414;28;20456;-72
2022/07/31 08:59:42;;;;;;;3.85;1.90;;;24.00;58.30;;;23.72;42.67;97563.84;5031166;28;20440;-72
2022/07/31 09:02:09;;;;;;;3.05;2.10;;;24.20;58.20;;;23.91;43.35;97561.44;5030450;28;20399;-73
2022/07/31 09:04:35;;;;;;;4.18;1.85;;;24.30;58.80;;;24.12;43.25;97561.41;5030371;28;20918;-73
2022/07/31 09:07:01;;;;;;;2.92;1.95;;;24.50;58.60;;;24.23;42.26;97559.06;5031188;28;20403;-73
2022/07/31 09:09:28;;;;;;;2.67;1.80;;;24.70;57.80;;;24.29;42.33;97566.63;5031112;28;20403;-73
2022/07/31 09:11:57;;;;;;;2.60;1.90;;;24.70;57.60;;;24.34;41.70;97564.84;5031043;28;20820;-73
2022/07/31 09:14:28;;;;;;;3.97;1.85;;;24.80;57.00;;;24.40;41.92;97564.28;5030338;28;20409;-73
2022/07/31 09:16:55;;;;;;;2.65;1.70;;;24.80;57.20;;;24.54;42.39;97558.56;5030974;28;20896;-73
2022/07/31 09:19:23;;;;;;;4.63;2.00;;;24.90;57.50;;;24.69;42.18;97555.97;5030916;28;20400;-73
2022/07/31 09:21:49;;;;;;;3.63;1.77;;;25.10;57.30;;;24.90;41.79;97557.75;5030809;28;20733;-73
2022/07/31 09:24:27;;;;;;;2.13;1.63;;;25.30;57.20;;;25.08;41.22;97548.31;5030265;28;20422;-73
2022/07/31 09:27:04;;;;;;;4.43;1.90;;;25.50;56.60;;;25.15;40.65;97547.72;5030810;28;20395;-73
2022/07/31 09:29:38;;;;;;;3.80;1.80;;;25.60;55.70;;;25.23;40.52;97547.59;5030737;28;20403;-73
2022/07/31 09:32:09;;;;;;;3.92;1.80;;;25.60;55.50;;;25.35;40.15;97542.13;5030784;28;20443;-73
2022/07/31 09:34:35;;;;;;;3.53;1.70;;;25.70;55.30;;;25.50;39.87;97539.81;5030164;28;20426;-74
2022/07/31 09:37:08;;;;;;;5.93;1.87;;;25.90;55.10;;;25.63;39.75;97549.56;5030649;28;20403;-73
2022/07/31 09:39:35;;;;;;;3.28;1.60;;;26.00;54.80;;;25.85;39.81;97554.44;5030676;28;20454;-73
2022/07/31 09:42:03;;;;;;;2.43;1.40;;;26.20;55.10;;;26.10;39.16;97538.78;5030612;28;20407;-73
2022/07/31 09:44:37;;;;;;;2.53;1.38;;;26.40;54.60;;;26.32;38.45;97546.38;5030106;28;20787;-74
2022/07/31 09:47:03;;;;;;;3.30;1.23;;;26.60;53.30;;;26.46;37.16;97545.97;5030609;28;20486;-74
2022/07/31 09:49:31;;;;;;;2.00;1.20;;;26.80;52.10;;;26.56;36.40;97542.69;5045878;28;20441;-74
2022/07/31 09:51:59;;;;;;;4.15;1.65;;;26.90;51.30;;;26.49;35.76;97543.31;5030527;28;20418;-74
2022/07/31 09:54:28;;;;;;;4.20;1.58;;;27.00;50.70;;;26.45;35.64;97545.16;5029894;28;20399;-74
2022/07/31 09:56:54;;;;;;;2.60;1.50;;;26.90;50.40;;;26.41;36.07;97538.84;5030495;28;20423;-73
2022/07/31 09:59:22;;;;;;;5.28;1.52;;;26.80;51.00;;;26.27;34.28;97538.50;5030501;28;20403;-73
2022/07/31 10:01:49;;;;;;;2.40;1.60;;;26.80;48.40;;;26.22;34.25;97530.59;5030465;28;20406;-73
2022/07/31 10:04:16;;;;;;;3.53;1.52;;;26.70;48.70;;;26.04;34.10;97521.19;5029762;28;20417;-74
2022/07/31 10:06:45;;;;;;;2.92;1.35;;;26.60;48.00;;;26.04;34.27;97527.41;5029104;28;20976;-74
2022/07/31 10:09:12;;;;;;;4.35;1.60;;;26.50;48.30;;;26.29;34.27;97519.94;5030418;28;20502;-73
2022/07/31 10:11:39;;;;;;;2.65;1.30;;;26.80;48.30;;;26.65;34.25;97515.38;5030192;28;20903;-74
2022/07/31 10:14:09;;;;;;;3.42;1.40;;;27.10;48.90;;;26.94;34.51;97517.63;5032790;28;20399;-74
2022/07/31 10:16:39;;;;;;;3.67;1.48;;;27.40;49.00;;;27.04;34.35;97514.34;5034317;28;20444;-74
2022/07/31 10:19:10;;;;;;;4.32;1.40;;;27.50;48.70;;;26.91;34.12;97508.22;5034268;28;20751;-73
2022/07/31 10:21:41;;;;;;;2.67;1.30;;;27.40;48.00;;;26.77;34.02;97512.53;5034294;28;20449;-74